Time;durP1;ratioP1;P1;durP2;ratioP2;P2;SDS_P1;SDS_P2;PMS_P1;PMS_P2;Temp;Humidity;BMP_temperature;BMP_pressure;BME280_temperature;BME280_humidity;BME280_pressure;Samples;Min_cycle;Max_cycle;Signal;HPM_P1;HPM_P2
2021/04/19 00:01:04;;;;;;;19.40;15.85;;;14.00;44.30;;;;;;5027765;28;20041;-59
2021/04/19 00:03:30;;;;;;;18.10;15.07;;;14.00;44.20;;;;;;5054209;28;20037;-59
2021/04/19 00:05:56;;;;;;;18.60;16.10;;;14.00;44.40;;;;;;5059437;28;20047;-60
2021/04/19 00:08:21;;;;;;;18.08;14.88;;;14.00;44.40;;;;;;5063673;28;20041;-58
2021/04/19 00:10:47;;;;;;;16.23;14.57;;;14.00;44.30;;;;;;5029429;28;20071;-58
2021/04/19 00:13:13;;;;;;;16.20;14.60;;;14.00;44.20;;;;;;5043802;28;20040;-60
2021/04/19 00:15:40;;;;;;;16.58;13.85;;;14.00;44.40;;;;;;5045043;28;20045;-60
2021/04/19 00:18:06;;;;;;;18.63;15.98;;;14.00;44.50;;;;;;5035066;28;20075;-59
2021/04/19 00:20:32;;;;;;;17.02;15.23;;;14.00;44.30;;;;;;5048136;28;20096;-60
2021/04/19 00:22:58;;;;;;;18.38;14.75;;;14.00;44.40;;;;;;5045187;28;20059;-60
2021/04/19 00:25:23;;;;;;;17.60;15.75;;;13.90;44.30;;;;;;5053604;28;20028;-59
2021/04/19 00:27:49;;;;;;;16.40;14.68;;;14.00;44.50;;;;;;5058822;28;20049;-59
2021/04/19 00:30:15;;;;;;;17.77;15.55;;;14.00;44.20;;;;;;5064844;28;20033;-58
2021/04/19 00:32:41;;;;;;;16.90;14.73;;;14.00;44.20;;;;;;5042972;28;20036;-60
2021/04/19 00:35:08;;;;;;;16.63;14.82;;;13.90;44.40;;;;;;5048824;28;20893;-59
2021/04/19 00:37:34;;;;;;;16.55;14.32;;;13.90;44.40;;;;;;5051495;28;20037;-60
2021/04/19 00:39:59;;;;;;;18.05;15.52;;;13.80;44.30;;;;;;5051573;28;20139;-59
2021/04/19 00:42:25;;;;;;;16.98;15.07;;;13.80;44.50;;;;;;5036392;28;20051;-59
2021/04/19 00:44:51;;;;;;;16.25;14.10;;;13.70;44.80;;;;;;5053664;28;20093;-59
2021/04/19 00:47:16;;;;;;;16.63;14.85;;;13.70;44.90;;;;;;5043750;28;20057;-59
2021/04/19 00:49:42;;;;;;;15.90;14.23;;;13.70;44.70;;;;;;5049189;28;20033;-59
2021/04/19 00:52:09;;;;;;;16.80;14.77;;;13.60;44.90;;;;;;5033680;28;20070;-58
2021/04/19 00:54:36;;;;;;;18.83;15.20;;;13.60;44.90;;;;;;5037602;28;20999;-59
2021/04/19 00:57:01;;;;;;;18.13;15.35;;;13.50;44.90;;;;;;5046002;28;20093;-59
2021/04/19 00:59:27;;;;;;;17.33;15.45;;;13.50;45.10;;;;;;5054794;28;20052;-59
2021/04/19 01:01:53;;;;;;;17.55;15.18;;;13.50;45.10;;;;;;5048831;28;20033;-58
2021/04/19 01:04:19;;;;;;;19.88;16.52;;;13.50;45.40;;;;;;5051124;28;20037;-59
2021/04/19 01:06:45;;;;;;;17.30;15.43;;;13.50;45.70;;;;;;5047550;28;20084;-59
2021/04/19 01:09:11;;;;;;;16.45;14.65;;;13.40;45.90;;;;;;5033122;28;22407;-57
2021/04/19 01:11:37;;;;;;;19.73;16.58;;;13.40;46.00;;;;;;5041036;28;20041;-59
2021/04/19 01:14:02;;;;;;;18.33;16.23;;;13.40;46.20;;;;;;5064512;28;20518;-58
2021/04/19 01:16:28;;;;;;;16.95;15.27;;;13.30;46.10;;;;;;5057473;28;20119;-58
2021/04/19 01:18:54;;;;;;;20.08;15.85;;;13.30;46.30;;;;;;5051947;28;20395;-60
2021/04/19 01:21:20;;;;;;;17.30;14.98;;;13.40;46.40;;;;;;5051505;28;20037;-60
2021/04/19 01:23:45;;;;;;;18.00;16.10;;;13.30;46.50;;;;;;5041004;28;20048;-58
2021/04/19 01:26:11;;;;;;;17.08;14.50;;;13.40;46.60;;;;;;5041668;28;20098;-59
2021/04/19 01:28:37;;;;;;;16.63;14.82;;;13.30;46.50;;;;;;5043560;28;20045;-60
2021/04/19 01:31:02;;;;;;;16.23;14.35;;;13.30;47.00;;;;;;5058767;28;20402;-59
2021/04/19 01:33:28;;;;;;;18.17;15.55;;;13.30;46.90;;;;;;5050618;28;20150;-59
2021/04/19 01:35:54;;;;;;;17.58;14.65;;;13.30;46.80;;;;;;5064808;28;20044;-58
2021/04/19 01:38:22;;;;;;;16.73;14.93;;;13.30;46.90;;;;;;5062982;28;20565;-58
2021/04/19 01:40:49;;;;;;;15.18;13.57;;;13.20;46.80;;;;;;5048583;28;20079;-60
2021/04/19 01:43:16;;;;;;;16.50;14.80;;;13.20;47.20;;;;;;5049638;28;20029;-60
2021/04/19 01:45:42;;;;;;;18.08;15.55;;;13.10;47.30;;;;;;5050135;28;20045;-59
2021/04/19 01:48:08;;;;;;;16.88;15.10;;;13.20;47.20;;;;;;5032911;28;20116;-60
2021/04/19 01:50:34;;;;;;;17.10;15.05;;;13.10;47.30;;;;;;5063240;28;20044;-60
2021/04/19 01:53:01;;;;;;;17.13;15.43;;;13.10;47.20;;;;;;5064941;28;20421;-60
2021/04/19 01:55:30;;;;;;;17.58;15.65;;;13.10;47.40;;;;;;5059977;28;20386;-59
2021/04/19 01:58:09;;;;;;;17.70;15.93;;;13.20;47.50;;;;;;5057978;28;20051;-58
2021/04/19 02:00:37;;;;;;;16.45;14.68;;;13.10;47.40;;;;;;5035276;28;20083;-60
2021/04/19 02:03:06;;;;;;;17.67;14.98;;;13.10;47.30;;;;;;5037276;28;20490;-60
2021/04/19 02:05:47;;;;;;;18.52;15.80;;;13.10;47.10;;;;;;5049955;28;20036;-60
2021/04/19 02:09:06;;;;;;;19.00;17.00;;;13.10;47.10;;;;;;5048860;28;20593;-60
2021/04/19 02:11:40;;;;;;;17.13;15.43;;;13.10;47.60;;;;;;4914192;28;20026;-59
2021/04/19 02:14:30;;;;;;;18.23;16.13;;;13.10;47.60;;;;;;5003645;28;20125;-58
2021/04/19 02:17:02;;;;;;;18.67;16.75;;;13.10;48.10;;;;;;5024742;28;20049;-59
2021/04/19 02:19:48;;;;;;;18.15;16.25;;;13.00;47.70;;;;;;5024144;28;20040;-59
2021/04/19 02:22:25;;;;;;;17.73;15.90;;;12.90;48.00;;;;;;5014727;28;20106;-60
2021/04/19 02:24:59;;;;;;;17.73;15.82;;;12.90;48.40;;;;;;5021461;28;20102;-59
2021/04/19 02:27:38;;;;;;;19.55;17.55;;;12.90;48.00;;;;;;5027077;28;20560;-59
2021/04/19 02:30:15;;;;;;;19.27;17.27;;;12.90;49.10;;;;;;5045809;28;20095;-59
2021/04/19 02:32:46;;;;;;;19.77;17.52;;;12.90;48.80;;;;;;5046062;28;20044;-59
2021/04/19 02:35:15;;;;;;;19.52;17.08;;;12.90;49.20;;;;;;5048002;28;20052;-59
2021/04/19 02:37:42;;;;;;;20.45;17.73;;;12.90;48.90;;;;;;5040707;28;20047;-59
2021/04/19 02:40:10;;;;;;;20.50;18.40;;;12.90;49.00;;;;;;5054134;28;20032;-59
2021/04/19 02:42:39;;;;;;;18.67;16.63;;;12.90;49.00;;;;;;5045129;28;20036;-59
2021/04/19 02:45:07;;;;;;;19.38;17.35;;;12.90;49.40;;;;;;5046943;28;20033;-58
2021/04/19 02:47:34;;;;;;;20.52;18.33;;;12.80;49.30;;;;;;5039754;28;20115;-60
2021/04/19 02:50:01;;;;;;;20.65;18.45;;;12.80;49.30;;;;;;5050160;28;20036;-59
2021/04/19 02:52:27;;;;;;;23.90;17.92;;;12.80;49.20;;;;;;5034398;28;20418;-59
2021/04/19 02:54:54;;;;;;;21.42;17.58;;;12.90;49.10;;;;;;5063622;28;20033;-59
2021/04/19 02:57:26;;;;;;;20.75;17.95;;;12.80;49.50;;;;;;5039821;28;20052;-59
2021/04/19 02:59:53;;;;;;;20.98;18.73;;;12.90;49.10;;;;;;5034435;28;20430;-60
2021/04/19 03:02:22;;;;;;;21.58;19.27;;;12.80;49.00;;;;;;5044219;28;20072;-60
2021/04/19 03:04:48;;;;;;;20.17;17.70;;;12.80;49.80;;;;;;5056570;28;20117;-60
2021/04/19 03:07:16;;;;;;;20.30;18.17;;;12.80;49.20;;;;;;5048097;28;20112;-60
2021/04/19 03:09:51;;;;;;;23.50;21.08;;;12.80;49.50;;;;;;5052725;28;20037;-60
2021/04/19 03:12:17;;;;;;;22.92;20.23;;;12.70;50.50;;;;;;5059239;28;20394;-60
2021/04/19 03:14:48;;;;;;;23.45;20.95;;;12.80;50.30;;;;;;5055740;28;20087;-60
2021/04/19 03:17:16;;;;;;;23.80;20.95;;;12.90;50.70;;;;;;5045902;28;20056;-59
2021/04/19 03:19:47;;;;;;;24.75;22.08;;;12.90;50.80;;;;;;5034702;28;20032;-59
2021/04/19 03:22:13;;;;;;;26.02;21.35;;;12.90;50.80;;;;;;5051282;28;20111;-60
2021/04/19 03:24:40;;;;;;;24.92;21.33;;;12.80;50.70;;;;;;5055754;28;20493;-60
2021/04/19 03:27:07;;;;;;;25.83;21.83;;;12.80;51.20;;;;;;5065047;28;20039;-59
2021/04/19 03:29:35;;;;;;;23.15;20.65;;;12.90;50.70;;;;;;5055027;28;20029;-59
2021/04/19 03:32:10;;;;;;;22.35;19.92;;;12.80;50.60;;;;;;5047653;28;20538;-59
2021/04/19 03:34:38;;;;;;;23.70;20.83;;;12.70;50.80;;;;;;5048506;28;20425;-59
2021/04/19 03:37:06;;;;;;;22.52;20.10;;;12.70;50.80;;;;;;5060609;28;20045;-59
2021/04/19 03:39:34;;;;;;;23.35;20.85;;;12.70;50.90;;;;;;5055724;28;20044;-59
2021/04/19 03:42:02;;;;;;;23.27;20.83;;;12.70;51.10;;;;;;5056902;28;20029;-59
2021/04/19 03:44:32;;;;;;;23.42;20.92;;;12.60;51.70;;;;;;5030269;28;20450;-58
2021/04/19 03:47:00;;;;;;;22.77;20.40;;;12.60;51.20;;;;;;5055997;28;20044;-59
2021/04/19 03:49:43;;;;;;;23.02;20.65;;;12.60;51.50;;;;;;5055441;28;20043;-59
2021/04/19 03:52:14;;;;;;;24.52;21.92;;;12.50;52.20;;;;;;5055965;28;20052;-60
2021/04/19 03:54:44;;;;;;;24.85;22.23;;;12.50;52.00;;;;;;5050202;28;20072;-60
2021/04/19 03:57:14;;;;;;;24.88;21.38;;;12.50;51.90;;;;;;5050149;28;20061;-60
2021/04/19 03:59:43;;;;;;;24.70;20.75;;;12.50;52.00;;;;;;5055096;28;20032;-59
2021/04/19 04:02:10;;;;;;;26.67;20.85;;;12.50;52.10;;;;;;5059465;28;20044;-59
2021/04/19 04:04:36;;;;;;;25.63;21.23;;;12.50;51.80;;;;;;5055557;28;20114;-59
2021/04/19 04:07:03;;;;;;;24.35;21.75;;;12.60;51.30;;;;;;5046733;28;20037;-60
2021/04/19 04:09:29;;;;;;;23.25;20.85;;;12.50;50.90;;;;;;5045967;28;20045;-58
2021/04/19 04:11:55;;;;;;;24.38;20.33;;;12.50;51.10;;;;;;5044288;28;20450;-59
2021/04/19 04:14:22;;;;;;;21.52;19.27;;;12.50;50.70;;;;;;5059430;28;20036;-60
2021/04/19 04:16:47;;;;;;;25.30;20.88;;;12.50;51.00;;;;;;5061298;28;20048;-59
2021/04/19 04:19:13;;;;;;;23.17;19.63;;;12.40;50.80;;;;;;5063848;28;20043;-59
2021/04/19 04:21:39;;;;;;;23.20;20.85;;;12.50;50.90;;;;;;5061868;28;20057;-58
2021/04/19 04:24:05;;;;;;;24.65;21.45;;;12.40;51.40;;;;;;5062825;28;20100;-58
2021/04/19 04:26:31;;;;;;;24.48;21.75;;;12.40;51.70;;;;;;5055770;28;20060;-58
2021/04/19 04:28:58;;;;;;;21.65;19.20;;;12.30;52.00;;;;;;5058518;28;20477;-59
2021/04/19 04:31:23;;;;;;;20.63;18.42;;;12.30;51.80;;;;;;5050971;28;20037;-59
2021/04/19 04:33:49;;;;;;;20.77;18.58;;;12.30;51.50;;;;;;5057183;28;20036;-58
2021/04/19 04:36:16;;;;;;;21.27;18.65;;;12.30;51.50;;;;;;5045819;28;20103;-60
2021/04/19 04:38:42;;;;;;;18.75;16.48;;;12.30;51.40;;;;;;5043034;28;20041;-59
2021/04/19 04:41:08;;;;;;;17.50;15.55;;;12.30;51.20;;;;;;5047941;28;20072;-58
2021/04/19 04:43:36;;;;;;;18.42;16.10;;;12.40;50.90;;;;;;5047244;28;20041;-59
2021/04/19 04:46:26;;;;;;;16.85;14.93;;;12.40;50.60;;;;;;5046892;28;21802;-58
2021/04/19 04:49:00;;;;;;;16.77;14.13;;;12.40;50.30;;;;;;5049262;28;20028;-59
2021/04/19 04:51:28;;;;;;;16.02;14.43;;;12.40;51.00;;;;;;5062158;28;20033;-59
2021/04/19 04:53:57;;;;;;;16.75;15.00;;;12.40;50.30;;;;;;5064281;28;20354;-59
2021/04/19 04:56:25;;;;;;;15.23;13.63;;;12.40;50.50;;;;;;5043688;28;20061;-58
2021/04/19 04:58:56;;;;;;;18.20;15.30;;;12.40;50.70;;;;;;5047124;28;20044;-58
2021/04/19 05:01:25;;;;;;;16.83;14.60;;;12.50;50.60;;;;;;5060013;28;20032;-60
2021/04/19 05:03:51;;;;;;;17.38;14.77;;;12.40;50.50;;;;;;5021931;28;20175;-60
2021/04/19 05:06:18;;;;;;;17.77;15.07;;;12.30;50.60;;;;;;5037535;28;20474;-59
2021/04/19 05:08:43;;;;;;;18.17;14.15;;;12.30;50.70;;;;;;5057310;28;20056;-59
2021/04/19 05:11:10;;;;;;;15.40;13.43;;;12.40;51.10;;;;;;5041370;28;20068;-59
2021/04/19 05:13:36;;;;;;;18.17;14.98;;;12.40;50.60;;;;;;5050031;28;20139;-59
2021/04/19 05:16:02;;;;;;;18.55;13.85;;;12.40;50.80;;;;;;5068701;28;20127;-59
2021/04/19 05:18:28;;;;;;;17.52;14.55;;;12.40;50.80;;;;;;5063912;28;20123;-59
2021/04/19 05:20:55;;;;;;;16.58;14.30;;;12.50;51.10;;;;;;5058086;28;20490;-58
2021/04/19 05:23:21;;;;;;;18.15;15.57;;;12.40;51.10;;;;;;5042096;28;20108;-59
2021/04/19 05:25:47;;;;;;;17.63;15.65;;;12.40;50.90;;;;;;5068239;28;20044;-59
2021/04/19 05:28:14;;;;;;;17.50;15.13;;;12.50;50.70;;;;;;5055009;28;20053;-59
2021/04/19 05:30:40;;;;;;;17.80;14.82;;;12.40;50.60;;;;;;5053998;28;20047;-59
2021/04/19 05:33:06;;;;;;;19.20;16.58;;;12.40;50.60;;;;;;5045399;28;20037;-58
2021/04/19 05:35:34;;;;;;;21.70;16.30;;;12.40;50.70;;;;;;5052496;28;20045;-58
2021/04/19 05:38:01;;;;;;;18.48;15.85;;;12.40;50.80;;;;;;5046684;28;20033;-59
2021/04/19 05:40:29;;;;;;;20.10;17.65;;;12.50;50.90;;;;;;5047845;28;20064;-58
2021/04/19 05:42:56;;;;;;;18.83;16.35;;;12.50;50.80;;;;;;5050049;28;20442;-59
2021/04/19 05:45:23;;;;;;;24.65;16.98;;;12.50;50.90;;;;;;5049740;28;20095;-59
2021/04/19 05:47:50;;;;;;;21.20;18.23;;;12.50;50.90;;;;;;5054763;28;20449;-58
2021/04/19 05:50:18;;;;;;;19.77;17.15;;;12.50;50.70;;;;;;5059218;28;20033;-58
2021/04/19 05:52:46;;;;;;;20.92;16.83;;;12.50;50.80;;;;;;5049019;28;20056;-55
2021/04/19 05:55:13;;;;;;;22.73;19.48;;;12.60;50.70;;;;;;5041233;28;20124;-56
2021/04/19 05:57:50;;;;;;;22.88;18.65;;;12.60;50.60;;;;;;5049257;28;20040;-58
2021/04/19 06:00:46;;;;;;;23.33;18.85;;;12.60;50.50;;;;;;5028145;28;20036;-58
2021/04/19 06:03:29;;;;;;;22.85;18.33;;;12.70;50.50;;;;;;5018653;28;20067;-59
2021/04/19 06:06:01;;;;;;;23.65;18.38;;;12.70;50.10;;;;;;5040660;28;20052;-59
2021/04/19 06:08:49;;;;;;;24.20;19.58;;;12.60;50.20;;;;;;5055635;28;20037;-58
2021/04/19 06:11:26;;;;;;;25.02;19.20;;;12.70;50.00;;;;;;5025483;28;20128;-59
2021/04/19 06:13:53;;;;;;;23.50;19.52;;;12.70;50.20;;;;;;5053952;28;20460;-58
2021/04/19 06:16:20;;;;;;;25.77;20.35;;;12.70;50.10;;;;;;5056853;28;20040;-59
2021/04/19 06:18:47;;;;;;;26.15;21.00;;;12.70;49.80;;;;;;5032822;28;20053;-59
2021/04/19 06:21:13;;;;;;;27.23;21.55;;;12.90;49.90;;;;;;5049861;28;20540;-59
2021/04/19 06:23:42;;;;;;;23.27;20.45;;;12.90;49.60;;;;;;5053636;28;20041;-59
2021/04/19 06:26:09;;;;;;;23.33;19.98;;;12.90;49.80;;;;;;5044889;28;20055;-58
2021/04/19 06:28:35;;;;;;;22.88;19.42;;;12.80;49.40;;;;;;5046387;28;20041;-59
2021/04/19 06:31:03;;;;;;;22.88;18.10;;;12.90;49.50;;;;;;5037651;28;20053;-58
2021/04/19 06:33:30;;;;;;;23.63;17.17;;;13.00;49.50;;;;;;5049013;28;20033;-58
2021/04/19 06:35:56;;;;;;;22.60;19.15;;;13.00;49.30;;;;;;5049995;28;20067;-58
2021/04/19 06:38:22;;;;;;;20.88;17.35;;;13.10;49.90;;;;;;5039245;28;20134;-58
2021/04/19 06:40:47;;;;;;;21.85;18.65;;;13.10;48.80;;;;;;5040112;28;20421;-58
2021/04/19 06:43:13;;;;;;;22.15;18.00;;;13.10;48.80;;;;;;5054172;28;20048;-58
2021/04/19 06:45:40;;;;;;;21.05;17.55;;;13.00;48.30;;;;;;5060496;28;20086;-60
2021/04/19 06:48:09;;;;;;;22.20;17.08;;;13.00;48.50;;;;;;5063852;28;20094;-58
2021/04/19 06:50:37;;;;;;;19.77;16.90;;;13.00;48.50;;;;;;5058076;28;20038;-59
2021/04/19 06:53:03;;;;;;;21.92;16.23;;;13.00;48.00;;;;;;5054424;28;20106;-61
2021/04/19 06:55:29;;;;;;;21.67;17.83;;;13.20;48.10;;;;;;5057417;28;20060;-59
2021/04/19 06:57:59;;;;;;;21.73;16.67;;;13.20;47.80;;;;;;5047932;28;20059;-58
2021/04/19 07:00:28;;;;;;;21.85;18.08;;;13.20;47.70;;;;;;5041510;28;20120;-58
2021/04/19 07:02:57;;;;;;;22.70;18.65;;;13.20;47.60;;;;;;5046989;28;20362;-56
2021/04/19 07:05:29;;;;;;;20.77;17.85;;;13.20;47.80;;;;;;5054127;28;20044;-57
2021/04/19 07:08:15;;;;;;;20.60;18.00;;;13.20;47.80;;;;;;5054537;28;20059;-57
2021/04/19 07:10:42;;;;;;;25.35;18.92;;;13.30;47.70;;;;;;5050998;28;20092;-59
2021/04/19 07:13:10;;;;;;;23.42;19.05;;;13.20;47.70;;;;;;5039446;28;20075;-59
2021/04/19 07:15:40;;;;;;;24.95;18.80;;;13.30;47.60;;;;;;5053144;28;20055;-59
2021/04/19 07:18:06;;;;;;;29.60;20.80;;;13.40;47.50;;;;;;5055258;28;20124;-57
2021/04/19 07:20:33;;;;;;;22.58;19.13;;;13.50;47.60;;;;;;5052799;28;20063;-58
2021/04/19 07:23:01;;;;;;;23.15;19.35;;;13.60;47.30;;;;;;5052442;28;20043;-59
2021/04/19 07:25:28;;;;;;;23.95;19.02;;;13.60;46.70;;;;;;5053214;28;20036;-59
2021/04/19 07:27:55;;;;;;;21.75;19.30;;;13.60;46.50;;;;;;5058439;28;20048;-57
2021/04/19 07:30:20;;;;;;;23.08;20.58;;;13.60;46.80;;;;;;5053604;28;20044;-58
2021/04/19 07:32:46;;;;;;;25.13;19.70;;;13.70;46.50;;;;;;5040772;28;20064;-58
2021/04/19 07:35:12;;;;;;;24.05;20.02;;;13.80;46.70;;;;;;5050738;28;20115;-58
2021/04/19 07:37:39;;;;;;;24.02;19.30;;;13.70;46.00;;;;;;5050658;28;20057;-59
2021/04/19 07:40:06;;;;;;;29.60;18.42;;;13.80;46.10;;;;;;5036513;28;20446;-59
2021/04/19 07:42:37;;;;;;;20.83;17.73;;;13.90;46.40;;;;;;5047466;28;20078;-58
2021/04/19 07:45:04;;;;;;;72.93;24.08;;;13.80;45.60;;;;;;5048793;28;20128;-59
2021/04/19 07:47:42;;;;;;;40.95;19.63;;;13.80;45.60;;;;;;5040298;28;20041;-58
2021/04/19 07:50:13;;;;;;;24.20;19.02;;;13.90;45.20;;;;;;5048821;28;20041;-58
2021/04/19 07:52:56;;;;;;;23.27;18.15;;;13.90;44.90;;;;;;5048796;28;20127;-59
2021/04/19 07:55:31;;;;;;;23.45;19.48;;;13.90;44.50;;;;;;5060440;28;20482;-58
2021/04/19 07:57:58;;;;;;;25.27;18.67;;;13.90;45.00;;;;;;5036516;28;20033;-58
2021/04/19 08:00:32;;;;;;;21.63;17.55;;;14.00;44.20;;;;;;5047435;28;20037;-57
2021/04/19 08:03:17;;;;;;;21.73;18.05;;;13.90;44.20;;;;;;5045718;28;20033;-57
2021/04/19 08:05:51;;;;;;;24.73;18.98;;;14.00;43.60;;;;;;5039174;28;20068;-58
2021/04/19 08:08:34;;;;;;;26.10;19.65;;;14.10;44.50;;;;;;5056922;28;20033;-58
2021/04/19 08:11:08;;;;;;;24.20;19.50;;;14.20;44.50;;;;;;5002195;28;20029;-59
2021/04/19 08:13:33;;;;;;;23.23;19.13;;;14.30;43.80;;;;;;5048682;28;20056;-59
2021/04/19 08:16:21;;;;;;;23.13;20.00;;;14.40;43.60;;;;;;5053520;28;20494;-58
2021/04/19 08:18:47;;;;;;;25.60;18.65;;;14.40;42.80;;;;;;5036622;28;20049;-58
2021/04/19 08:21:23;;;;;;;26.85;19.73;;;14.40;42.80;;;;;;5045804;28;20101;-58
2021/04/19 08:23:49;;;;;;;26.55;19.98;;;14.40;42.90;;;;;;5050721;28;20094;-57
2021/04/19 08:26:15;;;;;;;23.77;19.05;;;14.50;42.50;;;;;;5049252;28;20120;-59
2021/04/19 08:28:50;;;;;;;26.30;18.98;;;14.70;42.60;;;;;;5050693;28;20307;-58
2021/04/19 08:31:17;;;;;;;23.55;19.38;;;14.70;41.70;;;;;;5042277;28;20040;-59
2021/04/19 08:33:45;;;;;;;24.90;19.73;;;14.80;41.80;;;;;;5060782;28;20067;-59
2021/04/19 08:36:12;;;;;;;26.67;20.02;;;14.90;42.10;;;;;;5051887;28;20045;-59
2021/04/19 08:38:38;;;;;;;23.98;20.25;;;14.90;41.90;;;;;;5046464;28;20076;-59
2021/04/19 08:41:05;;;;;;;21.63;18.00;;;15.00;41.00;;;;;;5040571;28;20041;-57
2021/04/19 08:43:33;;;;;;;27.15;19.30;;;14.90;40.50;;;;;;5026054;28;20037;-58
2021/04/19 08:46:00;;;;;;;25.42;17.75;;;14.90;40.40;;;;;;5040941;28;20082;-58
2021/04/19 08:48:26;;;;;;;21.30;16.92;;;14.80;39.90;;;;;;5052652;28;20133;-58
2021/04/19 08:50:53;;;;;;;24.75;17.60;;;14.80;39.80;;;;;;5061674;28;20226;-59
2021/04/19 08:53:20;;;;;;;22.45;17.90;;;14.90;39.40;;;;;;5061477;28;20056;-56
2021/04/19 08:55:47;;;;;;;20.63;18.42;;;14.90;39.40;;;;;;5043706;28;20100;-57
2021/04/19 08:58:14;;;;;;;23.35;17.40;;;14.90;39.10;;;;;;5048584;28;20486;-58
2021/04/19 09:00:51;;;;;;;22.13;17.45;;;15.10;40.10;;;;;;5031635;28;20036;-58
2021/04/19 09:03:19;;;;;;;24.58;18.30;;;15.10;39.10;;;;;;5064731;28;20067;-58
2021/04/19 09:05:46;;;;;;;22.58;18.65;;;14.90;39.30;;;;;;5062528;28;20136;-58
2021/04/19 09:08:15;;;;;;;26.80;18.73;;;14.90;39.50;;;;;;5056591;28;20106;-58
2021/04/19 09:10:56;;;;;;;22.48;18.52;;;15.00;39.50;;;;;;5029652;28;20069;-57
2021/04/19 09:13:31;;;;;;;20.60;18.27;;;15.00;38.90;;;;;;5047933;28;20048;-58
2021/04/19 09:16:22;;;;;;;23.10;17.35;;;15.20;39.00;;;;;;5056185;28;20126;-56
2021/04/19 09:18:55;;;;;;;25.88;20.08;;;15.30;38.60;;;;;;5007959;28;20048;-59
2021/04/19 09:21:44;;;;;;;21.48;19.02;;;15.40;38.10;;;;;;5013205;28;20037;-57
2021/04/19 09:24:13;;;;;;;20.45;17.38;;;15.50;37.40;;;;;;4998418;28;20036;-59
2021/04/19 09:26:51;;;;;;;24.00;19.10;;;15.50;37.80;;;;;;5018640;28;20049;-58
2021/04/19 09:29:25;;;;;;;23.58;19.67;;;15.60;38.00;;;;;;5017146;28;20423;-58
2021/04/19 09:31:57;;;;;;;;;;;15.40;37.60;;;;;;5013909;28;20042;-59
2021/04/19 09:34:49;;;;;;;22.75;19.58;;;15.40;38.00;;;;;;5010801;28;20461;-57
2021/04/19 09:37:43;;;;;;;23.45;19.25;;;15.60;37.90;;;;;;4997786;28;20061;-57
2021/04/19 09:40:16;;;;;;;24.00;20.90;;;15.80;37.90;;;;;;4996236;28;20041;-58
2021/04/19 09:42:58;;;;;;;22.67;20.27;;;15.80;38.40;;;;;;5002542;28;20050;-59
2021/04/19 09:45:46;;;;;;;23.33;20.83;;;15.90;37.20;;;;;;5009948;28;20537;-55
2021/04/19 09:48:33;;;;;;;22.45;20.05;;;15.90;37.10;;;;;;5006423;28;20079;-58
2021/04/19 09:51:18;;;;;;;23.95;20.15;;;15.90;36.60;;;;;;5003893;28;20034;-58
2021/04/19 09:53:46;;;;;;;;;;;15.90;36.60;;;;;;5008443;28;20472;-59
2021/04/19 09:56:12;;;;;;;23.27;19.83;;;15.90;36.50;;;;;;5011882;28;21505;-59
2021/04/19 09:58:39;;;;;;;24.00;20.17;;;16.00;37.20;;;;;;5009951;28;20554;-58
2021/04/19 10:01:06;;;;;;;21.73;19.48;;;16.10;36.80;;;;;;5021006;28;20083;-59
2021/04/19 10:03:33;;;;;;;19.90;17.77;;;16.20;36.50;;;;;;5012317;28;20482;-58
2021/04/19 10:06:02;;;;;;;22.48;17.85;;;16.30;35.30;;;;;;5012709;28;20037;-58
2021/04/19 10:08:30;;;;;;;19.85;17.20;;;16.20;34.10;;;;;;5023098;28;20081;-58
2021/04/19 10:10:58;;;;;;;24.92;19.33;;;16.20;35.30;;;;;;5026043;28;20042;-57
2021/04/19 10:13:32;;;;;;;22.20;19.02;;;16.20;35.60;;;;;;5010549;28;20041;-59
2021/04/19 10:16:11;;;;;;;19.92;17.20;;;16.30;34.80;;;;;;5030167;28;20526;-58
2021/04/19 10:18:41;;;;;;;19.17;17.10;;;16.30;34.90;;;;;;5048021;28;20049;-59
2021/04/19 10:21:09;;;;;;;21.08;17.90;;;16.50;35.00;;;;;;5055461;28;20045;-59
2021/04/19 10:23:43;;;;;;;23.90;19.27;;;16.60;34.50;;;;;;5049542;28;20041;-58
2021/04/19 10:26:10;;;;;;;19.65;17.45;;;16.60;34.00;;;;;;5031118;28;20032;-59
2021/04/19 10:28:37;;;;;;;18.83;16.40;;;16.70;33.80;;;;;;5049103;28;20127;-60
2021/04/19 10:31:11;;;;;;;17.27;14.90;;;16.70;33.50;;;;;;5046994;28;20546;-59
2021/04/19 10:33:38;;;;;;;;;;;16.70;33.20;;;;;;5066734;28;20040;-57
2021/04/19 10:36:13;;;;;;;17.58;14.80;;;16.40;31.60;;;;;;5062444;28;19927;-59
2021/04/19 10:38:40;;;;;;;16.33;14.50;;;16.30;33.40;;;;;;5041607;28;20114;-59
2021/04/19 10:41:07;;;;;;;18.50;15.18;;;16.40;33.20;;;;;;5051654;28;20041;-59
2021/04/19 10:43:33;;;;;;;16.40;14.73;;;16.60;32.90;;;;;;5040014;28;20526;-59
2021/04/19 10:45:59;;;;;;;23.70;16.75;;;16.60;32.40;;;;;;5042955;28;20113;-58
2021/04/19 10:48:28;;;;;;;17.77;15.88;;;16.70;32.30;;;;;;5050022;28;20036;-59
2021/04/19 10:51:13;;;;;;;17.38;14.40;;;17.00;32.10;;;;;;5048826;28;20112;-61
2021/04/19 10:53:41;;;;;;;17.40;15.02;;;17.10;31.70;;;;;;5034699;28;20143;-59
2021/04/19 10:56:08;;;;;;;19.30;15.45;;;17.20;31.40;;;;;;5045145;28;20040;-61
2021/04/19 10:58:36;;;;;;;16.55;14.82;;;17.20;30.40;;;;;;5061091;28;20040;-61
2021/04/19 11:01:03;;;;;;;16.40;14.73;;;17.40;31.10;;;;;;5047755;28;20060;-59
2021/04/19 11:03:38;;;;;;;16.38;14.65;;;17.50;30.20;;;;;;5059166;28;20028;-60
2021/04/19 11:06:06;;;;;;;19.30;15.18;;;17.50;30.30;;;;;;5054134;28;20098;-60
2021/04/19 11:08:57;;;;;;;14.80;13.27;;;17.60;30.00;;;;;;5040396;28;20071;-60
2021/04/19 11:11:36;;;;;;;14.48;12.80;;;17.70;28.60;;;;;;5040159;28;20048;-60
2021/04/19 11:14:19;;;;;;;16.50;13.73;;;17.50;29.20;;;;;;5010841;28;20056;-59
2021/04/19 11:16:52;;;;;;;15.75;14.15;;;17.60;28.60;;;;;;5060571;28;20060;-60
2021/04/19 11:19:47;;;;;;;16.98;15.18;;;17.70;29.30;;;;;;5058323;28;20045;-60
2021/04/19 11:22:34;;;;;;;18.08;14.85;;;17.80;28.20;;;;;;5012207;28;20029;-60
2021/04/19 11:25:13;;;;;;;16.40;13.60;;;18.00;28.30;;;;;;5053080;28;20416;-60
2021/04/19 11:27:39;;;;;;;18.17;14.10;;;18.30;29.00;;;;;;5042358;28;20557;-61
2021/04/19 11:30:23;;;;;;;17.67;15.55;;;18.50;29.00;;;;;;5057958;28;20052;-60
2021/04/19 11:33:04;;;;;;;16.63;14.95;;;18.30;28.10;;;;;;5044744;28;20037;-60
2021/04/19 11:35:35;;;;;;;16.70;15.00;;;18.70;27.30;;;;;;5067855;28;20025;-60
2021/04/19 11:38:03;;;;;;;15.77;13.70;;;19.20;27.20;;;;;;5050343;28;20052;-60
2021/04/19 11:40:36;;;;;;;17.15;15.35;;;20.80;25.90;;;;;;5032321;28;20490;-60
2021/04/19 11:43:25;;;;;;;18.58;15.18;;;19.40;25.70;;;;;;5054491;28;20040;-59
2021/04/19 11:46:08;;;;;;;18.52;16.42;;;20.60;26.30;;;;;;5048711;28;20107;-60
2021/04/19 11:48:40;;;;;;;18.90;16.02;;;24.50;22.80;;;;;;5018291;28;20040;-60
2021/04/19 11:51:08;;;;;;;18.30;15.05;;;26.50;20.70;;;;;;5050782;28;20040;-60
2021/04/19 11:53:36;;;;;;;17.65;15.80;;;27.60;19.40;;;;;;5043123;28;20053;-61
2021/04/19 11:56:04;;;;;;;21.95;16.23;;;28.50;18.00;;;;;;5033891;28;20131;-60
2021/04/19 11:58:29;;;;;;;16.45;14.88;;;30.50;17.80;;;;;;5041165;28;20035;-60
2021/04/19 12:00:55;;;;;;;16.90;15.27;;;31.90;17.70;;;;;;5054281;28;20410;-61
2021/04/19 12:03:25;;;;;;;18.90;16.13;;;29.10;16.30;;;;;;5050844;28;20455;-61
2021/04/19 12:05:51;;;;;;;17.25;15.55;;;25.20;18.40;;;;;;5066338;28;20032;-61
2021/04/19 12:08:17;;;;;;;20.00;16.10;;;25.50;19.50;;;;;;5044341;28;20040;-61
2021/04/19 12:10:43;;;;;;;19.17;16.90;;;24.90;20.10;;;;;;5049756;28;20029;-61
2021/04/19 12:13:14;;;;;;;17.35;15.65;;;24.10;21.00;;;;;;5051440;28;20040;-61
2021/04/19 12:15:44;;;;;;;16.10;14.52;;;24.60;20.10;;;;;;5053223;28;20032;-60
2021/04/19 12:18:10;;;;;;;15.68;14.07;;;25.80;20.50;;;;;;5052546;28;20040;-60
2021/04/19 12:20:37;;;;;;;15.57;14.00;;;26.00;20.30;;;;;;5052964;28;20037;-60
2021/04/19 12:23:02;;;;;;;16.17;14.45;;;26.00;20.10;;;;;;5060739;28;20040;-61
2021/04/19 12:25:28;;;;;;;16.83;15.13;;;23.90;21.50;;;;;;5045167;28;20091;-61
2021/04/19 12:27:55;;;;;;;17.48;15.80;;;22.60;22.60;;;;;;5054235;28;20381;-60
2021/04/19 12:30:21;;;;;;;17.02;15.23;;;21.70;23.40;;;;;;5043215;28;20076;-60
2021/04/19 12:32:46;;;;;;;15.73;14.00;;;21.30;23.70;;;;;;5056952;28;20072;-60
2021/04/19 12:35:13;;;;;;;16.50;14.80;;;20.80;24.30;;;;;;5046113;28;20040;-60
2021/04/19 12:37:38;;;;;;;16.63;15.02;;;21.20;23.70;;;;;;5056957;28;20102;-61
2021/04/19 12:40:05;;;;;;;18.05;16.25;;;22.50;23.20;;;;;;5047189;28;20032;-60
2021/04/19 12:42:30;;;;;;;16.55;14.68;;;22.70;23.00;;;;;;5057397;28;20061;-60